Terminal Aerodrome Forecast
Issued by NWS Atlanta, GA

Home | Current Version | Previous Version | Text Only | Print | Product List | Glossary On
Versions: 1 2 3 4 5 6 7 8 9 10 11 12 13 14 15 16 17
662
FTUS42 KFFC 300520
TAFCSG
TAF
KCSG 300520Z 3006/3106 21004KT P6SM SCT100
     FM301000 16004KT P6SM SCT015 SCT250
     FM301500 17008KT P6SM SCT040 BKN250
     FM301800 19010KT P6SM BKN045
     FM302200 20010G20KT P6SM VCSH BKN045
     FM310300 19008KT 5SM -SHRA BKN030 PROB30 3104/3106 VRB20G30KT
      3SM TSRA BKN020CB=

USA.gov is the U.S. government's official web portal to all federal, state and local government web resources and services.